createdAt,value
2018-08-13T00:00:11.405Z,2.27
2018-08-13T00:02:40.979Z,2.20
2018-08-13T00:05:09.735Z,2.20
2018-08-13T00:07:38.479Z,2.20
2018-08-13T00:10:07.400Z,2.57
2018-08-13T00:12:36.404Z,2.50
2018-08-13T00:15:05.032Z,2.30
2018-08-13T00:17:33.791Z,2.20
2018-08-13T00:20:02.334Z,2.17
2018-08-13T00:22:30.934Z,2.50
2018-08-13T00:25:00.046Z,2.40
2018-08-13T00:27:28.894Z,2.60
2018-08-13T00:29:57.693Z,2.33
2018-08-13T00:32:26.415Z,2.73
2018-08-13T00:34:55.048Z,2.80
2018-08-13T00:37:24.144Z,2.70
2018-08-13T00:39:53.838Z,2.70
2018-08-13T00:42:22.552Z,3.20
2018-08-13T00:44:51.198Z,2.93
2018-08-13T00:47:20.539Z,3.73
2018-08-13T00:49:49.263Z,2.87
2018-08-13T00:52:18.627Z,3.50
2018-08-13T00:54:47.398Z,3.63
2018-08-13T00:57:16.211Z,3.53
2018-08-13T00:59:45.099Z,3.70
2018-08-13T01:02:14.950Z,3.80
2018-08-13T01:04:43.865Z,3.50
2018-08-13T01:07:12.805Z,3.53
2018-08-13T01:09:41.985Z,3.27
2018-08-13T01:12:10.805Z,3.80
2018-08-13T01:14:39.816Z,3.47
2018-08-13T01:17:08.339Z,3.53
2018-08-13T01:19:37.906Z,3.30
2018-08-13T01:22:06.576Z,3.70
2018-08-13T01:24:35.337Z,3.43
2018-08-13T01:27:04.286Z,3.77
2018-08-13T01:29:33.247Z,4.20
2018-08-13T01:32:02.905Z,3.47
2018-08-13T01:34:31.546Z,3.10
2018-08-13T01:37:00.589Z,3.37
2018-08-13T01:39:29.176Z,3.70
2018-08-13T01:41:59.342Z,3.53
2018-08-13T01:44:28.060Z,3.40
2018-08-13T01:46:57.848Z,3.27
2018-08-13T01:49:27.317Z,3.60
2018-08-13T01:51:56.021Z,3.50
2018-08-13T01:54:24.757Z,4.27
2018-08-13T01:56:53.776Z,4.33
2018-08-13T01:59:22.492Z,3.87
2018-08-13T02:01:51.139Z,4.33
2018-08-13T02:04:20.136Z,4.37
2018-08-13T02:06:48.914Z,4.23
2018-08-13T02:09:17.894Z,4.30
2018-08-13T02:11:47.361Z,4.50
2018-08-13T02:14:16.044Z,4.33
2018-08-13T02:16:44.950Z,4.23
2018-08-13T02:19:13.844Z,4.60
2018-08-13T02:21:42.584Z,4.20
2018-08-13T02:24:11.852Z,4.77
2018-08-13T02:26:40.548Z,4.90
2018-08-13T02:29:10.192Z,4.73
2018-08-13T02:31:39.223Z,4.87
2018-08-13T02:34:08.279Z,4.50
2018-08-13T02:36:37.116Z,4.80
2018-08-13T02:39:07.933Z,5.10
2018-08-13T02:41:36.565Z,5.73
2018-08-13T02:44:05.306Z,5.13
2018-08-13T02:46:34.054Z,5.27
2018-08-13T02:49:02.970Z,5.00
2018-08-13T02:51:32.660Z,5.37
2018-08-13T02:54:01.747Z,5.53
2018-08-13T02:56:30.306Z,5.80
2018-08-13T02:58:59.320Z,5.70
2018-08-13T03:01:28.420Z,5.77
2018-08-13T03:03:57.072Z,6.10
2018-08-13T03:06:26.107Z,6.00
2018-08-13T03:08:54.615Z,6.10
2018-08-13T03:11:23.806Z,5.70
2018-08-13T03:13:52.992Z,6.83
2018-08-13T03:16:21.776Z,6.20
2018-08-13T03:18:50.463Z,5.80
2018-08-13T03:21:19.540Z,6.07
2018-08-13T03:23:48.410Z,5.63
2018-08-13T03:26:17.512Z,5.30
2018-08-13T03:28:46.169Z,5.17
2018-08-13T03:31:15.901Z,5.00
2018-08-13T03:33:44.679Z,5.20
2018-08-13T03:36:13.622Z,5.40
2018-08-13T03:38:42.310Z,5.13
2018-08-13T03:41:10.970Z,5.20
2018-08-13T03:43:39.741Z,5.77
2018-08-13T03:46:08.501Z,5.27
2018-08-13T03:48:37.130Z,5.27
2018-08-13T03:51:06.690Z,5.43
2018-08-13T03:53:35.621Z,5.30
2018-08-13T03:56:04.439Z,5.53
2018-08-13T03:58:33.362Z,5.57
2018-08-13T04:01:02.343Z,5.23
2018-08-13T04:03:31.143Z,5.33
2018-08-13T04:05:59.791Z,5.93
2018-08-13T04:08:28.621Z,6.30
2018-08-13T04:10:57.380Z,6.07
2018-08-13T04:13:26.022Z,5.73
2018-08-13T04:15:54.880Z,6.33
2018-08-13T04:18:23.706Z,5.53
2018-08-13T04:20:52.295Z,6.20
2018-08-13T04:23:20.950Z,6.00
2018-08-13T04:25:49.469Z,5.73
2018-08-13T04:28:18.229Z,5.83
2018-08-13T04:30:47.451Z,6.47
2018-08-13T04:33:16.187Z,6.30
2018-08-13T04:35:46.720Z,5.93
2018-08-13T04:38:16.829Z,5.53
2018-08-13T04:40:46.443Z,6.37
2018-08-13T04:43:15.716Z,6.30
2018-08-13T04:45:44.479Z,5.90
2018-08-13T04:48:14.874Z,6.27
2018-08-13T04:50:44.060Z,6.07
2018-08-13T04:53:13.655Z,6.70
2018-08-13T04:55:42.833Z,6.00
2018-08-13T04:58:12.005Z,6.40
2018-08-13T05:00:42.224Z,6.50
2018-08-13T05:03:11.732Z,7.13
2018-08-13T05:05:40.606Z,6.43
2018-08-13T05:08:09.441Z,6.30
2018-08-13T05:10:38.262Z,6.67
2018-08-13T05:13:06.969Z,6.50
2018-08-13T05:15:41.388Z,6.37
2018-08-13T05:18:10.177Z,6.60
2018-08-13T05:20:39.385Z,6.63
2018-08-13T05:23:08.179Z,6.27
2018-08-13T05:25:37.953Z,6.50
2018-08-13T05:28:08.193Z,6.80
2018-08-13T05:30:37.280Z,6.37
2018-08-13T05:33:06.995Z,5.70
2018-08-13T05:35:36.333Z,6.60
2018-08-13T05:38:06.126Z,6.37
2018-08-13T05:40:35.681Z,6.20
2018-08-13T05:43:05.043Z,7.30
2018-08-13T05:45:37.243Z,6.80
2018-08-13T05:48:06.087Z,7.23
2018-08-13T05:50:36.950Z,7.67
2018-08-13T05:53:15.910Z,7.67
2018-08-13T05:55:46.295Z,7.43
2018-08-13T05:58:15.378Z,7.53
2018-08-13T06:00:45.304Z,7.90
2018-08-13T06:03:14.208Z,8.07
2018-08-13T06:05:42.896Z,7.80
2018-08-13T06:08:11.788Z,8.00
2018-08-13T06:10:40.468Z,7.60
2018-08-13T06:13:10.190Z,7.33
2018-08-13T06:15:39.144Z,7.43
2018-08-13T06:18:07.768Z,7.57
2018-08-13T06:20:37.072Z,7.47
2018-08-13T06:23:06.144Z,6.83
2018-08-13T06:25:35.015Z,7.10
2018-08-13T06:28:03.880Z,7.53
2018-08-13T06:30:32.394Z,8.57
2018-08-13T06:33:01.068Z,7.90
2018-08-13T06:35:30.111Z,7.43
2018-08-13T06:37:58.886Z,7.93
2018-08-13T06:40:27.873Z,7.93
2018-08-13T06:42:56.647Z,8.27
2018-08-13T06:45:25.321Z,8.50
2018-08-13T06:47:54.017Z,8.70
2018-08-13T06:50:22.897Z,9.50
2018-08-13T06:52:51.613Z,9.47
2018-08-13T06:55:20.513Z,9.40
2018-08-13T06:57:49.292Z,9.03
2018-08-13T07:00:18.150Z,7.87
2018-08-13T07:02:47.391Z,7.43
2018-08-13T07:05:16.224Z,6.97
2018-08-13T07:07:45.610Z,7.60
2018-08-13T07:10:15.949Z,6.37
2018-08-13T07:12:46.574Z,7.60
2018-08-13T07:15:16.019Z,7.30
2018-08-13T07:17:44.906Z,7.23
2018-08-13T07:20:16.293Z,7.37
2018-08-13T07:22:45.242Z,6.83
2018-08-13T07:25:14.286Z,7.43
2018-08-13T07:27:43.191Z,7.53
2018-08-13T07:30:13.156Z,7.60
2018-08-13T07:32:42.885Z,7.97
2018-08-13T07:35:11.575Z,7.43
2018-08-13T07:37:40.672Z,7.70
2018-08-13T07:40:12.841Z,7.67
2018-08-13T07:42:41.528Z,8.60
2018-08-13T07:45:10.694Z,8.60
2018-08-13T07:47:39.964Z,7.63
2018-08-13T07:50:10.363Z,8.13
2018-08-13T07:52:39.461Z,8.00
2018-08-13T07:55:09.283Z,8.10
2018-08-13T07:57:38.382Z,8.03
2018-08-13T08:00:09.327Z,8.27
2018-08-13T08:02:38.484Z,8.63
2018-08-13T08:05:07.667Z,7.33
2018-08-13T08:07:36.876Z,7.33
2018-08-13T08:10:08.090Z,7.93
2018-08-13T08:12:37.149Z,8.07
2018-08-13T08:15:09.449Z,8.27
2018-08-13T08:17:38.624Z,7.53
2018-08-13T08:20:07.703Z,7.77
2018-08-13T08:22:37.908Z,7.23
2018-08-13T08:25:11.267Z,6.97
2018-08-13T08:27:40.222Z,6.80
2018-08-13T08:30:10.499Z,5.90
2018-08-13T08:32:39.855Z,5.30
2018-08-13T08:35:10.888Z,4.90
2018-08-13T08:37:40.282Z,5.50
2018-08-13T08:40:10.927Z,5.40
2018-08-13T08:42:39.944Z,5.40
2018-08-13T08:45:13.014Z,5.10
2018-08-13T08:47:41.914Z,5.40
2018-08-13T08:50:10.988Z,4.67
2018-08-13T08:52:39.704Z,4.33
2018-08-13T08:55:08.832Z,5.00
2018-08-13T08:57:37.617Z,5.53
2018-08-13T09:00:10.095Z,5.80
2018-08-13T09:02:38.788Z,5.90
2018-08-13T09:05:08.311Z,6.10
2018-08-13T09:07:37.976Z,6.50
2018-08-13T09:10:07.023Z,6.10
